Time;durP1;ratioP1;P1;durP2;ratioP2;P2;SDS_P1;SDS_P2;PMS_P1;PMS_P2;Temp;Humidity;BMP_temperature;BMP_pressure;BME280_temperature;BME280_humidity;BME280_pressure;Samples;Min_cycle;Max_cycle;Signal;HPM_P1;HPM_P2
2022/05/01 00:01:41;;;;;;;0.70;0.70;;;9.00;99.90;;;;;;5052028;28;20195;-76
2022/05/01 00:04:07;;;;;;;0.60;0.60;;;9.00;99.90;;;;;;5052245;28;20911;-77
2022/05/01 00:06:33;;;;;;;0.70;0.70;;;9.00;99.90;;;;;;5052419;28;20714;-77
2022/05/01 00:09:00;;;;;;;0.70;0.70;;;9.00;99.90;;;;;;5051420;28;20171;-78
2022/05/01 00:11:26;;;;;;;0.70;0.70;;;9.10;99.90;;;;;;5051637;28;20571;-78
2022/05/01 00:13:52;;;;;;;0.70;0.70;;;9.10;99.90;;;;;;5051863;28;20296;-78
2022/05/01 00:16:18;;;;;;;0.60;0.60;;;9.10;99.90;;;;;;5051622;28;20662;-77
2022/05/01 00:18:45;;;;;;;0.60;0.60;;;9.20;99.90;;;;;;5052245;28;20253;-77
2022/05/01 00:21:10;;;;;;;0.60;0.60;;;9.20;99.90;;;;;;5051704;28;20215;-78
2022/05/01 00:23:37;;;;;;;0.70;0.70;;;9.10;99.90;;;;;;5051535;28;20676;-77
2022/05/01 00:26:04;;;;;;;0.70;0.70;;;9.10;99.90;;;;;;5051748;28;20182;-77
2022/05/01 00:28:35;;;;;;;0.70;0.70;;;9.30;99.90;;;;;;5051448;28;20205;-78
2022/05/01 00:31:02;;;;;;;0.60;0.60;;;9.30;99.90;;;;;;5051403;28;20721;-77
2022/05/01 00:36:26;;;;;;;0.60;0.60;;;9.30;99.90;;;;;;5052371;28;20182;-77
2022/05/01 00:39:01;;;;;;;0.70;0.70;;;9.40;99.90;;;;;;5051360;28;20182;-78
2022/05/01 00:41:28;;;;;;;0.70;0.70;;;9.30;99.90;;;;;;5051684;28;20198;-76
2022/05/01 00:44:08;;;;;;;0.63;0.63;;;9.10;99.90;;;;;;5051629;28;20175;-78
2022/05/01 00:46:45;;;;;;;0.60;0.60;;;9.20;99.90;;;;;;5052023;28;20210;-78
2022/05/01 00:49:14;;;;;;;0.60;0.60;;;9.20;99.90;;;;;;5052138;28;20397;-76
2022/05/01 00:51:54;;;;;;;0.60;0.60;;;9.20;99.90;;;;;;5052381;28;20236;-76
2022/05/01 00:54:23;;;;;;;0.60;0.60;;;9.10;99.90;;;;;;5051730;28;20409;-76
2022/05/01 00:56:50;;;;;;;0.70;0.70;;;9.00;99.90;;;;;;5054534;28;20221;-76
2022/05/01 00:59:17;;;;;;;0.60;0.60;;;9.10;99.90;;;;;;5055874;28;20175;-77
2022/05/01 01:01:44;;;;;;;0.60;0.60;;;9.10;99.90;;;;;;5056090;28;20199;-76
2022/05/01 01:04:10;;;;;;;0.60;0.60;;;9.20;99.90;;;;;;5056021;28;20175;-76
2022/05/01 01:06:37;;;;;;;0.70;0.70;;;9.20;99.90;;;;;;5055728;28;20589;-76
2022/05/01 01:09:03;;;;;;;0.63;0.63;;;9.20;99.90;;;;;;5055288;28;20179;-76
2022/05/01 01:11:29;;;;;;;0.70;0.70;;;9.10;99.90;;;;;;5055231;28;20194;-76
2022/05/01 01:13:55;;;;;;;0.70;0.70;;;9.10;99.90;;;;;;5054421;28;20690;-76
2022/05/01 01:16:21;;;;;;;0.57;0.57;;;9.20;99.90;;;;;;5055230;28;20255;-76
2022/05/01 01:18:47;;;;;;;0.70;0.70;;;9.10;99.90;;;;;;5055120;28;20183;-76
2022/05/01 01:21:13;;;;;;;0.60;0.60;;;9.10;99.90;;;;;;5054832;28;20187;-76
2022/05/01 01:23:42;;;;;;;0.60;0.60;;;9.10;99.90;;;;;;5054860;28;20329;-75
2022/05/01 01:26:10;;;;;;;0.60;0.60;;;9.10;99.90;;;;;;5055207;28;20179;-76
2022/05/01 01:28:38;;;;;;;0.70;0.70;;;9.10;99.90;;;;;;5055515;28;20183;-76
2022/05/01 01:33:51;;;;;;;0.70;0.70;;;9.10;99.90;;;;;;5055201;28;20268;-76
2022/05/01 01:36:20;;;;;;;0.70;0.70;;;9.10;99.90;;;;;;5055598;28;20182;-77
2022/05/01 01:38:45;;;;;;;0.70;0.70;;;9.10;99.90;;;;;;5054836;28;20182;-76
2022/05/01 01:41:13;;;;;;;0.63;0.63;;;9.10;99.90;;;;;;5054456;28;20195;-76
2022/05/01 01:43:42;;;;;;;0.67;0.67;;;9.00;99.90;;;;;;5055006;28;20171;-77
2022/05/01 01:46:07;;;;;;;0.60;0.60;;;9.00;99.90;;;;;;5055091;28;20188;-76
2022/05/01 01:48:33;;;;;;;0.60;0.60;;;9.00;99.90;;;;;;5055161;28;20179;-76
2022/05/01 01:51:01;;;;;;;0.60;0.60;;;9.00;99.90;;;;;;5054430;28;20191;-76
2022/05/01 01:53:28;;;;;;;0.70;0.70;;;9.10;99.90;;;;;;5054394;28;20215;-76
2022/05/01 01:55:54;;;;;;;0.70;0.70;;;9.10;99.90;;;;;;5054968;28;20175;-76
2022/05/01 01:58:20;;;;;;;0.60;0.60;;;9.10;99.90;;;;;;5054953;28;20193;-76
2022/05/01 02:00:45;;;;;;;0.70;0.70;;;9.10;99.90;;;;;;5054687;28;20192;-76
2022/05/01 02:03:11;;;;;;;0.60;0.60;;;9.10;99.90;;;;;;5056434;28;20701;-77
2022/05/01 02:05:37;;;;;;;0.70;0.70;;;9.10;99.90;;;;;;5060058;28;20203;-76
2022/05/01 02:08:05;;;;;;;0.60;0.60;;;9.10;99.90;;;;;;5056255;28;20228;-76
2022/05/01 02:10:31;;;;;;;0.70;0.70;;;9.00;99.90;;;;;;5054293;28;20564;-76
2022/05/01 02:12:58;;;;;;;0.70;0.70;;;9.00;99.90;;;;;;5053991;28;20214;-76
2022/05/01 02:15:24;;;;;;;0.67;0.67;;;9.10;99.90;;;;;;5054657;28;20183;-76
2022/05/01 02:17:49;;;;;;;0.80;0.80;;;9.10;99.90;;;;;;5054288;28;20182;-76
2022/05/01 02:20:15;;;;;;;0.70;0.70;;;9.00;99.90;;;;;;5053639;28;20237;-75
2022/05/01 02:22:42;;;;;;;0.70;0.70;;;8.90;99.90;;;;;;5053966;28;20171;-76
2022/05/01 02:25:09;;;;;;;0.60;0.60;;;8.90;99.90;;;;;;5053845;28;20183;-76
2022/05/01 02:27:35;;;;;;;0.60;0.60;;;8.90;99.90;;;;;;5053905;28;20191;-76
2022/05/01 02:30:01;;;;;;;0.70;0.70;;;8.90;99.90;;;;;;5053341;28;20270;-75
2022/05/01 02:32:27;;;;;;;0.70;0.70;;;8.90;99.90;;;;;;5053809;28;20588;-76
2022/05/01 02:34:52;;;;;;;0.50;0.50;;;8.90;99.90;;;;;;5053350;28;20211;-76
2022/05/01 02:37:18;;;;;;;0.60;0.60;;;8.90;99.90;;;;;;5053397;28;20179;-75
2022/05/01 02:39:43;;;;;;;0.60;0.60;;;8.90;99.90;;;;;;5052864;28;20217;-76
2022/05/01 02:42:09;;;;;;;0.60;0.60;;;8.90;99.90;;;;;;5053299;28;20202;-76
2022/05/01 02:44:35;;;;;;;0.60;0.60;;;9.00;99.90;;;;;;5053604;28;20178;-75
2022/05/01 02:47:00;;;;;;;0.60;0.60;;;9.00;99.90;;;;;;5053418;28;20742;-76
2022/05/01 02:49:26;;;;;;;0.63;0.63;;;9.00;99.90;;;;;;5052845;28;20698;-76
2022/05/01 02:51:53;;;;;;;0.73;0.73;;;9.00;99.90;;;;;;5053138;28;20668;-76
2022/05/01 02:54:20;;;;;;;0.80;0.80;;;9.00;99.90;;;;;;5053540;28;20287;-77
2022/05/01 02:56:47;;;;;;;0.67;0.67;;;9.00;99.90;;;;;;5053641;28;20237;-76
2022/05/01 02:59:13;;;;;;;0.60;0.60;;;9.00;99.90;;;;;;5053395;28;20262;-76
2022/05/01 03:01:38;;;;;;;0.50;0.50;;;9.10;99.90;;;;;;5053349;28;20634;-76
2022/05/01 03:04:04;;;;;;;0.60;0.60;;;9.10;99.90;;;;;;5053008;28;20179;-75
2022/05/01 03:06:30;;;;;;;0.70;0.70;;;9.20;99.90;;;;;;5053039;28;20176;-76
2022/05/01 03:08:56;;;;;;;0.60;0.60;;;9.20;99.90;;;;;;5052764;28;20168;-76
2022/05/01 03:11:21;;;;;;;0.60;0.60;;;9.20;99.90;;;;;;5052623;28;20562;-76
2022/05/01 03:13:47;;;;;;;0.70;0.70;;;9.20;99.90;;;;;;5052723;28;20222;-76
2022/05/01 03:16:13;;;;;;;0.70;0.70;;;9.20;99.90;;;;;;5052573;28;20270;-76
2022/05/01 03:24:02;;;;;;;0.70;0.70;;;9.10;99.90;;;;;;5090157;28;20283;-76
2022/05/01 03:26:27;;;;;;;0.70;0.70;;;9.10;99.90;;;;;;5089821;28;20265;-76
2022/05/01 03:28:53;;;;;;;0.70;0.70;;;9.20;99.90;;;;;;5090371;28;20206;-76
2022/05/01 03:31:18;;;;;;;0.77;0.77;;;9.20;99.90;;;;;;5090489;28;20194;-76
2022/05/01 03:33:44;;;;;;;0.70;0.70;;;9.20;99.90;;;;;;5086780;28;20198;-76
2022/05/01 03:36:11;;;;;;;0.67;0.67;;;9.10;99.90;;;;;;5081856;28;20597;-75
2022/05/01 03:38:41;;;;;;;0.70;0.70;;;9.10;99.90;;;;;;5081317;28;20185;-74
2022/05/01 03:41:09;;;;;;;0.60;0.60;;;9.00;99.90;;;;;;5081233;28;20195;-74
2022/05/01 03:43:36;;;;;;;0.60;0.60;;;9.00;99.90;;;;;;5080075;28;20221;-74
2022/05/01 03:46:04;;;;;;;0.70;0.70;;;9.00;99.90;;;;;;5080725;28;20206;-74
2022/05/01 03:48:29;;;;;;;0.60;0.60;;;9.10;99.90;;;;;;5083724;28;20261;-74
2022/05/01 03:50:55;;;;;;;0.70;0.70;;;9.10;99.90;;;;;;5091181;28;20189;-76
2022/05/01 03:53:22;;;;;;;0.70;0.70;;;9.10;99.90;;;;;;5091889;28;20246;-75
2022/05/01 03:55:48;;;;;;;0.90;0.90;;;9.10;99.90;;;;;;5095801;28;20197;-75
2022/05/01 03:58:14;;;;;;;0.60;0.60;;;9.10;99.90;;;;;;5097008;28;20201;-75
2022/05/01 04:00:44;;;;;;;0.60;0.60;;;9.10;99.90;;;;;;5095702;28;20179;-75
2022/05/01 04:03:09;;;;;;;0.67;0.67;;;9.10;99.90;;;;;;5094191;28;20182;-74
2022/05/01 04:05:35;;;;;;;0.70;0.70;;;9.10;99.90;;;;;;5094069;28;20189;-75
2022/05/01 04:08:00;;;;;;;0.67;0.67;;;9.20;99.90;;;;;;5088959;28;20174;-74
2022/05/01 04:10:26;;;;;;;0.70;0.70;;;9.10;99.90;;;;;;5089718;28;20570;-75
2022/05/01 04:12:51;;;;;;;0.70;0.70;;;9.20;99.90;;;;;;5092399;28;20181;-74
2022/05/01 04:15:17;;;;;;;0.70;0.70;;;9.10;99.90;;;;;;5086554;28;20228;-74
2022/05/01 04:17:43;;;;;;;0.70;0.70;;;9.10;99.90;;;;;;5082999;28;20542;-75
2022/05/01 04:20:12;;;;;;;0.70;0.70;;;9.20;99.90;;;;;;5080428;28;20192;-75
2022/05/01 04:22:42;;;;;;;0.70;0.70;;;9.20;99.90;;;;;;5081346;28;20562;-74
2022/05/01 04:25:18;;;;;;;0.70;0.70;;;9.10;99.90;;;;;;5081295;28;20181;-75
2022/05/01 04:27:45;;;;;;;0.70;0.70;;;9.00;99.90;;;;;;5081209;28;20178;-75
2022/05/01 04:30:12;;;;;;;0.80;0.80;;;9.00;99.90;;;;;;5080146;28;20185;-75
2022/05/01 04:32:51;;;;;;;0.70;0.70;;;9.10;99.90;;;;;;5074792;28;20178;-74
2022/05/01 04:35:32;;;;;;;0.60;0.60;;;9.00;99.90;;;;;;5071465;28;20189;-74
2022/05/01 04:38:02;;;;;;;0.80;0.80;;;9.00;99.90;;;;;;5071091;28;20167;-74
2022/05/01 04:40:38;;;;;;;0.70;0.70;;;8.90;99.90;;;;;;5070729;28;20198;-74
2022/05/01 04:43:08;;;;;;;0.70;0.70;;;8.90;99.90;;;;;;5071223;28;20681;-74
2022/05/01 04:45:35;;;;;;;0.70;0.70;;;9.00;99.90;;;;;;5071183;28;20254;-75
2022/05/01 04:48:01;;;;;;;0.70;0.70;;;8.90;99.90;;;;;;5071208;28;20209;-74
2022/05/01 04:50:27;;;;;;;0.70;0.70;;;9.00;99.90;;;;;;5070765;28;20226;-74
2022/05/01 04:52:54;;;;;;;0.80;0.80;;;9.00;99.90;;;;;;5071295;28;20635;-74
2022/05/01 04:55:20;;;;;;;0.70;0.70;;;9.00;99.90;;;;;;5071330;28;20174;-75
2022/05/01 04:57:45;;;;;;;0.70;0.70;;;9.00;99.90;;;;;;5071528;28;20238;-75
2022/05/01 05:00:11;;;;;;;0.70;0.70;;;9.00;99.90;;;;;;5071062;28;20171;-74
2022/05/01 05:02:39;;;;;;;0.63;0.63;;;8.90;99.90;;;;;;5071381;28;20265;-74
2022/05/01 05:05:12;;;;;;;0.70;0.70;;;8.90;99.90;;;;;;5070906;28;20185;-74
2022/05/01 05:07:39;;;;;;;0.70;0.70;;;9.00;99.90;;;;;;5069966;28;20185;-74
2022/05/01 05:10:06;;;;;;;0.70;0.70;;;9.00;99.90;;;;;;5070149;28;20647;-74
2022/05/01 05:12:33;;;;;;;0.60;0.60;;;9.00;99.90;;;;;;5070964;28;20182;-74
2022/05/01 05:15:00;;;;;;;0.70;0.70;;;9.00;99.90;;;;;;5071046;28;20394;-74
2022/05/01 05:17:27;;;;;;;0.70;0.70;;;9.10;99.90;;;;;;5070722;28;20178;-74
2022/05/01 05:19:53;;;;;;;0.70;0.70;;;9.10;99.90;;;;;;5070204;28;20553;-74
2022/05/01 05:22:19;;;;;;;0.70;0.70;;;9.00;99.90;;;;;;5070614;28;20595;-74
2022/05/01 05:24:45;;;;;;;0.70;0.70;;;9.10;99.90;;;;;;5071246;28;20179;-75
2022/05/01 05:27:11;;;;;;;0.70;0.70;;;9.10;99.90;;;;;;5071148;28;20185;-74
2022/05/01 05:29:37;;;;;;;0.70;0.70;;;9.20;99.90;;;;;;5070313;28;20181;-73
2022/05/01 05:32:02;;;;;;;0.70;0.70;;;9.10;99.90;;;;;;5071622;28;20289;-74
2022/05/01 05:34:28;;;;;;;0.70;0.70;;;9.10;99.90;;;;;;5072638;28;20244;-74
2022/05/01 05:36:53;;;;;;;0.70;0.70;;;9.10;99.90;;;;;;5070914;28;20174;-74
2022/05/01 05:39:19;;;;;;;0.67;0.67;;;9.00;99.90;;;;;;5070228;28;20175;-74
2022/05/01 05:41:44;;;;;;;0.60;0.60;;;9.10;99.90;;;;;;5071324;28;20612;-75
2022/05/01 05:44:10;;;;;;;0.70;0.70;;;9.10;99.90;;;;;;5074602;28;20557;-74
2022/05/01 05:46:36;;;;;;;0.70;0.70;;;9.10;99.90;;;;;;5074630;28;20201;-74
2022/05/01 05:49:02;;;;;;;0.70;0.70;;;9.10;99.90;;;;;;5074298;28;20672;-74
2022/05/01 05:51:27;;;;;;;0.70;0.70;;;9.00;99.90;;;;;;5074896;28;20190;-74
2022/05/01 05:53:53;;;;;;;0.70;0.70;;;9.10;99.90;;;;;;5074114;28;20210;-74
2022/05/01 05:56:20;;;;;;;0.70;0.70;;;9.20;99.90;;;;;;5074103;28;20271;-74
2022/05/01 05:58:46;;;;;;;0.60;0.60;;;9.20;99.90;;;;;;5074059;28;20179;-74
2022/05/01 06:01:12;;;;;;;0.60;0.60;;;9.20;99.90;;;;;;5073228;28;20332;-74
2022/05/01 06:03:38;;;;;;;0.73;0.73;;;9.30;99.90;;;;;;5074126;28;20665;-73
2022/05/01 06:06:04;;;;;;;0.70;0.70;;;9.40;99.90;;;;;;5075211;28;20183;-74
2022/05/01 06:08:29;;;;;;;0.70;0.70;;;9.40;99.90;;;;;;5075367;28;20188;-73
2022/05/01 06:10:55;;;;;;;0.70;0.70;;;9.40;99.90;;;;;;5074516;28;20285;-74
2022/05/01 06:13:21;;;;;;;0.70;0.70;;;9.50;99.90;;;;;;5074493;28;20206;-75
2022/05/01 06:15:47;;;;;;;0.60;0.60;;;9.60;99.90;;;;;;5073754;28;20181;-74
2022/05/01 06:18:13;;;;;;;0.70;0.70;;;9.60;99.90;;;;;;5073563;28;20187;-75
2022/05/01 06:20:39;;;;;;;0.60;0.60;;;9.60;99.90;;;;;;5072922;28;20588;-74
2022/05/01 06:23:04;;;;;;;0.73;0.73;;;9.70;99.90;;;;;;5073774;28;20183;-74
2022/05/01 06:25:30;;;;;;;0.70;0.70;;;9.70;99.90;;;;;;5073310;28;20182;-74
2022/05/01 06:27:56;;;;;;;0.70;0.70;;;9.70;99.90;;;;;;5073601;28;20198;-74
2022/05/01 06:30:21;;;;;;;0.70;0.70;;;9.70;99.90;;;;;;5072943;28;20225;-74
2022/05/01 06:32:48;;;;;;;0.70;0.70;;;9.80;99.90;;;;;;5073192;28;20228;-74
2022/05/01 06:35:15;;;;;;;0.70;0.70;;;9.90;99.90;;;;;;5073292;28;20692;-74
2022/05/01 06:37:41;;;;;;;0.60;0.60;;;10.00;99.90;;;;;;5073409;28;20227;-74
2022/05/01 06:40:07;;;;;;;0.70;0.70;;;10.10;99.90;;;;;;5072851;28;20265;-73
2022/05/01 06:42:33;;;;;;;0.80;0.80;;;10.10;99.90;;;;;;5073283;28;20190;-73
2022/05/01 06:44:59;;;;;;;0.60;0.60;;;10.10;99.90;;;;;;5073056;28;20174;-73
2022/05/01 06:47:25;;;;;;;0.80;0.80;;;10.20;99.90;;;;;;5073008;28;20205;-75
2022/05/01 06:49:50;;;;;;;0.70;0.70;;;10.30;99.90;;;;;;5071754;28;20175;-74
2022/05/01 06:52:24;;;;;;;0.60;0.60;;;10.40;96.70;;;;;;5072540;28;20252;-74
2022/05/01 06:54:50;;;;;;;0.70;0.70;;;10.50;42.10;;;;;;5072033;28;20314;-74
2022/05/01 06:57:16;;;;;;;0.70;0.70;;;10.50;47.00;;;;;;5073022;28;20635;-73
2022/05/01 06:59:41;;;;;;;0.50;0.50;;;10.60;56.40;;;;;;5072248;28;20273;-74
2022/05/01 07:02:07;;;;;;;0.60;0.60;;;10.70;33.50;;;;;;5072660;28;20217;-74
2022/05/01 07:04:33;;;;;;;0.50;0.50;;;10.70;21.60;;;;;;5071821;28;20536;-74
2022/05/01 07:06:59;;;;;;;0.60;0.60;;;10.80;18.80;;;;;;5072358;28;20265;-74
2022/05/01 07:09:24;;;;;;;0.53;0.53;;;11.00;28.10;;;;;;5071191;28;20266;-73
2022/05/01 07:11:50;;;;;;;0.60;0.60;;;11.20;4.70;;;;;;5072438;28;20190;-72
2022/05/01 07:14:15;;;;;;;0.53;0.53;;;11.40;1.00;;;;;;5067079;28;20211;-72
2022/05/01 07:16:41;;;;;;;0.43;0.43;;;11.30;1.00;;;;;;5053342;28;20163;-71
2022/05/01 07:19:06;;;;;;;0.60;0.60;;;11.40;1.00;;;;;;5053604;28;20553;-71
2022/05/01 07:21:32;;;;;;;0.50;0.50;;;11.30;1.00;;;;;;5052301;28;20291;-72
2022/05/01 07:23:58;;;;;;;0.47;0.47;;;11.30;1.00;;;;;;5052456;28;20175;-73
2022/05/01 07:26:24;;;;;;;0.50;0.50;;;11.30;1.00;;;;;;5070546;28;20205;-72
2022/05/01 07:28:50;;;;;;;0.50;0.50;;;11.40;1.00;;;;;;5072510;28;20179;-72
2022/05/01 07:31:16;;;;;;;0.50;0.50;;;11.20;1.00;;;;;;5071864;28;20247;-72
2022/05/01 07:33:41;;;;;;;0.50;0.50;;;11.40;1.00;;;;;;5072045;28;20202;-73
2022/05/01 07:36:07;;;;;;;0.40;0.40;;;11.40;1.00;;;;;;5072269;28;20177;-73
2022/05/01 07:38:32;;;;;;;0.50;0.50;;;11.50;1.00;;;;;;5072083;28;20324;-73
2022/05/01 07:40:58;;;;;;;0.40;0.40;;;11.60;1.00;;;;;;5065524;28;20201;-72
2022/05/01 07:43:23;;;;;;;0.70;0.70;;;11.70;1.00;;;;;;5071167;28;20185;-72
2022/05/01 07:45:49;;;;;;;0.60;0.60;;;11.70;1.00;;;;;;5067817;28;20186;-72
2022/05/01 07:48:14;;;;;;;0.50;0.50;;;11.50;1.00;;;;;;5071693;28;20181;-72
2022/05/01 07:50:40;;;;;;;0.60;0.60;;;11.70;1.00;;;;;;5071174;28;20198;-72
2022/05/01 07:53:06;;;;;;;0.60;0.60;;;11.80;1.00;;;;;;5071842;28;20209;-72
2022/05/01 07:55:31;;;;;;;0.70;0.70;;;11.70;1.00;;;;;;5063614;28;20170;-72
2022/05/01 07:57:57;;;;;;;0.50;0.50;;;11.90;1.00;;;;;;5067432;28;20606;-72
2022/05/01 08:00:22;;;;;;;0.50;0.50;;;11.40;1.00;;;;;;5074544;28;20193;-71
2022/05/01 08:05:32;;;;;;;0.50;0.50;;;11.20;1.00;;;;;;5072512;28;20185;-71
2022/05/01 08:07:58;;;;;;;0.57;0.57;;;11.00;1.00;;;;;;5055295;28;20174;-72
2022/05/01 08:10:23;;;;;;;0.50;0.50;;;10.90;1.00;;;;;;5072415;28;20201;-72
2022/05/01 08:12:49;;;;;;;0.60;0.60;;;11.20;1.00;;;;;;5072805;28;20209;-71
2022/05/01 08:15:19;;;;;;;0.50;0.50;;;11.00;1.00;;;;;;5074728;28;20178;-74
2022/05/01 08:17:47;;;;;;;0.50;0.50;;;10.90;1.00;;;;;;5075104;28;20204;-74
2022/05/01 08:23:07;;;;;;;0.50;0.50;;;11.30;1.00;;;;;;5070244;28;20190;-75
2022/05/01 08:25:34;;;;;;;0.40;0.40;;;11.60;1.00;;;;;;5075152;28;20193;-75
2022/05/01 08:28:00;;;;;;;0.50;0.50;;;11.30;1.00;;;;;;5074156;28;20276;-75
2022/05/01 08:30:26;;;;;;;0.47;0.47;;;11.10;1.00;;;;;;5076106;28;20608;-75
2022/05/01 08:32:52;;;;;;;0.40;0.40;;;11.30;1.00;;;;;;5073612;28;20174;-75
2022/05/01 08:35:17;;;;;;;0.60;0.60;;;11.60;1.00;;;;;;5071915;28;20201;-75
2022/05/01 08:37:43;;;;;;;0.50;0.50;;;11.80;1.00;;;;;;5071976;28;20671;-75
2022/05/01 08:40:09;;;;;;;0.50;0.50;;;11.70;1.00;;;;;;5070501;28;20612;-75
2022/05/01 08:42:36;;;;;;;0.50;0.50;;;11.70;1.00;;;;;;5071094;28;20239;-76
2022/05/01 08:45:09;;;;;;;0.50;0.50;;;11.70;92.70;;;;;;5071486;28;20186;-76
2022/05/01 08:47:46;;;;;;;0.50;0.50;;;11.70;1.00;;;;;;5071233;28;20639;-75
2022/05/01 08:50:12;;;;;;;0.60;0.60;;;11.70;99.90;;;;;;5070968;28;20173;-75
2022/05/01 08:52:39;;;;;;;0.50;0.50;;;11.90;1.00;;;;;;5071555;28;20270;-75
2022/05/01 08:55:05;;;;;;;0.40;0.40;;;12.30;1.00;;;;;;5072271;28;20701;-75
2022/05/01 08:57:33;;;;;;;0.50;0.50;;;12.60;1.00;;;;;;5069580;28;20262;-78
2022/05/01 08:59:58;;;;;;;0.50;0.50;;;13.00;98.70;;;;;;5068278;28;20258;-76
2022/05/01 09:02:25;;;;;;;0.40;0.40;;;13.20;1.00;;;;;;5067920;28;20612;-74
2022/05/01 09:04:50;;;;;;;0.40;0.40;;;13.40;1.00;;;;;;5069140;28;20182;-75
2022/05/01 09:07:16;;;;;;;0.30;0.30;;;13.60;1.00;;;;;;5068490;28;20903;-75
2022/05/01 09:09:41;;;;;;;0.40;0.40;;;13.80;1.00;;;;;;5067982;28;20197;-74
2022/05/01 09:14:52;;;;;;;0.40;0.40;;;13.70;1.00;;;;;;5068890;28;20266;-75
2022/05/01 09:17:21;;;;;;;0.37;0.37;;;13.70;90.20;;;;;;5070666;28;20182;-74
2022/05/01 09:19:53;;;;;;;0.40;0.40;;;14.10;1.00;;;;;;5065114;28;20666;-75
2022/05/01 09:22:20;;;;;;;0.50;0.50;;;13.90;1.00;;;;;;5090939;22;20222;-81
2022/05/01 09:24:52;;;;;;;0.50;0.50;;;13.80;99.90;;;;;;5093057;28;20187;-82
2022/05/01 09:27:30;;;;;;;0.30;0.30;;;13.70;1.00;;;;;;5093321;28;20183;-80
2022/05/01 09:30:10;;;;;;;0.40;0.40;;;13.80;1.00;;;;;;5069057;28;20182;-81
2022/05/01 09:32:38;;;;;;;0.50;0.50;;;14.00;1.00;;;;;;5049513;28;20239;-79
2022/05/01 09:35:11;;;;;;;0.40;0.40;;;14.30;1.00;;;;;;5055090;28;20208;-77
2022/05/01 09:37:36;;;;;;;0.50;0.50;;;14.30;99.90;;;;;;5055001;28;20176;-79
2022/05/01 09:40:02;;;;;;;0.50;0.50;;;14.60;1.00;;;;;;5053259;28;20214;-78
2022/05/01 09:42:34;;;;;;;0.40;0.40;;;14.40;99.90;;;;;;5048403;28;20176;-79
2022/05/01 09:45:04;;;;;;;0.40;0.40;;;14.50;99.90;;;;;;5053174;28;20206;-75
2022/05/01 09:47:40;;;;;;;0.40;0.40;;;14.60;99.90;;;;;;5057234;28;20167;-79
2022/05/01 09:50:07;;;;;;;0.40;0.40;;;14.50;1.00;;;;;;5056314;28;20213;-80
2022/05/01 09:52:56;;;;;;;0.40;0.40;;;14.50;1.00;;;;;;5055916;28;20226;-79
2022/05/01 09:55:22;;;;;;;0.40;0.40;;;14.60;99.90;;;;;;5049026;28;20187;-81
2022/05/01 09:57:48;;;;;;;0.40;0.40;;;14.80;99.90;;;;;;5048723;28;20180;-80
2022/05/01 10:00:14;;;;;;;0.40;0.40;;;14.70;99.90;;;;;;5048187;28;20176;-79
2022/05/01 10:02:39;;;;;;;0.40;0.40;;;14.60;99.90;;;;;;5048071;28;20222;-80
2022/05/01 10:05:08;;;;;;;0.40;0.40;;;14.60;99.90;;;;;;5049668;28;20249;-80
2022/05/01 10:07:38;;;;;;;0.30;0.30;;;14.30;99.90;;;;;;5052188;28;20172;-80
2022/05/01 10:10:08;;;;;;;0.50;0.50;;;14.30;85.30;;;;;;5052070;28;20279;-80
2022/05/01 10:12:41;;;;;;;0.40;0.40;;;14.10;99.90;;;;;;5052044;28;20175;-79
2022/05/01 10:15:08;;;;;;;0.50;0.50;;;14.60;1.00;;;;;;5049119;28;20211;-79
2022/05/01 10:17:34;;;;;;;0.30;0.30;;;15.10;1.00;;;;;;5050351;28;20198;-79
2022/05/01 10:20:02;;;;;;;0.40;0.40;;;16.10;1.00;;;;;;5056105;28;20175;-81
2022/05/01 10:22:28;;;;;;;0.40;0.40;;;17.40;1.00;;;;;;5051970;28;20207;-80
2022/05/01 10:24:54;;;;;;;0.40;0.40;;;17.90;1.00;;;;;;5048777;28;20180;-79
2022/05/01 10:27:35;;;;;;;0.40;0.40;;;18.00;1.00;;;;;;5047602;28;20671;-79
2022/05/01 10:33:14;;;;;;;0.40;0.40;;;17.70;1.00;;;;;;5047144;28;20675;-80
2022/05/01 10:36:07;;;;;;;0.30;0.30;;;17.20;1.00;;;;;;5046799;28;20203;-79
2022/05/01 10:38:49;;;;;;;0.40;0.40;;;16.70;1.00;;;;;;5047232;28;20180;-80
2022/05/01 10:41:16;;;;;;;0.40;0.40;;;17.90;1.00;;;;;;5046855;28;20575;-79
2022/05/01 10:44:03;;;;;;;0.50;0.50;;;18.10;1.00;;;;;;5047623;28;20180;-80
2022/05/01 10:46:31;;;;;;;0.40;0.40;;;18.60;1.00;;;;;;5046700;28;20188;-79
2022/05/01 10:49:00;;;;;;;0.40;0.40;;;18.40;1.00;;;;;;5046213;28;20226;-80
2022/05/01 10:51:30;;;;;;;0.50;0.50;;;19.10;1.00;;;;;;5046793;28;20188;-79
2022/05/01 10:54:10;;;;;;;0.40;0.40;;;18.30;1.00;;;;;;5028498;28;20570;-80
2022/05/01 10:56:50;;;;;;;0.37;0.37;;;17.20;1.00;;;;;;5048123;28;20195;-80
2022/05/01 10:59:30;;;;;;;0.40;0.40;;;16.20;1.00;;;;;;5044976;28;20255;-79
2022/05/01 11:02:22;;;;;;;0.40;0.40;;;15.90;1.00;;;;;;5046317;28;20214;-80
2022/05/01 11:04:49;;;;;;;0.30;0.30;;;16.60;1.00;;;;;;5047092;28;20178;-81
2022/05/01 11:07:16;;;;;;;0.30;0.30;;;17.20;1.00;;;;;;5047039;28;20180;-78
2022/05/01 11:09:47;;;;;;;0.40;0.40;;;17.60;1.00;;;;;;5046804;28;20172;-80
2022/05/01 11:12:15;;;;;;;0.37;0.37;;;17.30;1.00;;;;;;5046724;28;20603;-79
2022/05/01 11:14:41;;;;;;;0.40;0.40;;;16.20;1.00;;;;;;5044475;28;20207;-79
2022/05/01 11:17:12;;;;;;;0.40;0.40;;;15.80;1.00;;;;;;5045324;28;20246;-79
2022/05/01 11:19:51;;;;;;;0.40;0.40;;;16.20;1.00;;;;;;5045419;28;20192;-80
2022/05/01 11:22:25;;;;;;;0.40;0.40;;;16.00;1.00;;;;;;5041019;28;20235;-78
2022/05/01 11:24:51;;;;;;;0.30;0.30;;;16.20;1.00;;;;;;5043501;28;20672;-78
2022/05/01 11:27:18;;;;;;;0.40;0.40;;;16.40;1.00;;;;;;5043961;28;20183;-78
2022/05/01 11:30:22;;;;;;;0.40;0.40;;;16.80;1.00;;;;;;5042156;28;20184;-82
2022/05/01 11:32:58;;;;;;;0.40;0.40;;;16.70;1.00;;;;;;5038874;28;20179;-78
2022/05/01 11:36:00;;;;;;;0.40;0.40;;;16.00;1.00;;;;;;5038716;28;20191;-80
2022/05/01 11:38:38;;;;;;;0.40;0.40;;;15.40;1.00;;;;;;5043227;28;20707;-79
2022/05/01 11:41:04;;;;;;;0.40;0.40;;;15.80;1.00;;;;;;5037236;28;20245;-78
2022/05/01 11:43:32;;;;;;;0.40;0.40;;;15.90;1.00;;;;;;5038201;28;20172;-77
2022/05/01 11:46:02;;;;;;;0.47;0.47;;;16.40;1.00;;;;;;5039813;28;20217;-78
2022/05/01 11:48:28;;;;;;;0.40;0.40;;;16.10;1.00;;;;;;5020588;28;20183;-77
2022/05/01 11:50:58;;;;;;;0.40;0.40;;;15.50;1.00;;;;;;5040445;28;20318;-79
2022/05/01 11:53:26;;;;;;;0.40;0.40;;;15.40;1.00;;;;;;5041081;28;20203;-78
2022/05/01 12:04:39;;;;;;;0.33;0.33;;;15.80;1.00;;;;;;5038190;28;20183;-78
2022/05/01 12:07:17;;;;;;;0.50;0.50;;;15.80;1.00;;;;;;5003749;28;20180;-78
2022/05/01 12:09:44;;;;;;;0.40;0.40;;;15.60;1.00;;;;;;5035355;28;20265;-79
2022/05/01 12:12:16;;;;;;;0.43;0.43;;;16.30;1.00;;;;;;5039188;28;20194;-79
2022/05/01 12:14:43;;;;;;;0.50;0.50;;;16.50;1.00;;;;;;5037324;28;20211;-78
2022/05/01 12:17:14;;;;;;;0.40;0.40;;;16.50;1.00;;;;;;5035658;28;20529;-79
2022/05/01 12:19:44;;;;;;;0.40;0.40;;;17.10;1.00;;;;;;5038008;28;20178;-79
2022/05/01 12:22:15;;;;;;;0.40;0.40;;;17.70;1.00;;;;;;5039151;28;20583;-80
2022/05/01 12:24:42;;;;;;;0.40;0.40;;;18.40;1.00;;;;;;5037644;28;20238;-77
2022/05/01 12:27:08;;;;;;;0.40;0.40;;;19.40;1.00;;;;;;5036526;28;20213;-78
2022/05/01 12:29:35;;;;;;;0.40;0.40;;;19.10;1.00;;;;;;5038337;28;20239;-80
2022/05/01 12:32:14;;;;;;;0.40;0.40;;;18.60;1.00;;;;;;5038106;28;20206;-80
2022/05/01 12:34:56;;;;;;;0.37;0.37;;;18.50;1.00;;;;;;5038881;28;20237;-80
2022/05/01 12:37:27;;;;;;;0.40;0.40;;;18.30;1.00;;;;;;5038274;28;20253;-79
2022/05/01 12:40:10;;;;;;;0.50;0.50;;;18.20;1.00;;;;;;5037058;28;20653;-78
2022/05/01 12:45:38;;;;;;;0.30;0.30;;;18.40;1.00;;;;;;5038130;28;20259;-79
2022/05/01 12:48:06;;;;;;;0.40;0.40;;;17.80;1.00;;;;;;5035213;28;20258;-78
2022/05/01 12:50:32;;;;;;;0.40;0.40;;;17.80;1.00;;;;;;5037277;28;20202;-80
2022/05/01 12:53:00;;;;;;;0.40;0.40;;;17.60;1.00;;;;;;5040966;28;20203;-79
2022/05/01 12:55:32;;;;;;;0.40;0.40;;;17.30;1.00;;;;;;5039840;28;20712;-78
2022/05/01 12:58:06;;;;;;;0.50;0.50;;;17.40;1.00;;;;;;5040021;28;20168;-78
2022/05/01 13:00:45;;;;;;;0.40;0.40;;;18.00;1.00;;;;;;5039200;28;20187;-78
2022/05/01 13:03:20;;;;;;;0.40;0.40;;;18.50;1.00;;;;;;5037487;28;20744;-79
2022/05/01 13:06:05;;;;;;;0.30;0.30;;;18.70;1.00;;;;;;5042230;28;20167;-80
2022/05/01 13:08:41;;;;;;;0.40;0.40;;;19.20;1.00;;;;;;5041812;28;20178;-79
2022/05/01 13:11:16;;;;;;;0.40;0.40;;;19.40;1.00;;;;;;5040605;28;20227;-79
2022/05/01 13:13:45;;;;;;;0.40;0.40;;;19.50;1.00;;;;;;5042438;28;20218;-79
2022/05/01 13:16:12;;;;;;;0.40;0.40;;;19.30;1.00;;;;;;5044922;28;20168;-78
2022/05/01 13:18:37;;;;;;;0.40;0.40;;;19.20;1.00;;;;;;5039951;28;20210;-78
2022/05/01 13:21:03;;;;;;;0.50;0.50;;;19.00;1.00;;;;;;5040231;28;20227;-78
2022/05/01 13:23:29;;;;;;;0.40;0.40;;;19.20;1.00;;;;;;5043138;28;20200;-78
2022/05/01 13:25:55;;;;;;;0.40;0.40;;;19.20;1.00;;;;;;5041234;28;20221;-77
2022/05/01 13:28:21;;;;;;;0.40;0.40;;;18.70;1.00;;;;;;5038814;28;20168;-78
2022/05/01 13:30:46;;;;;;;0.40;0.40;;;18.90;1.00;;;;;;5039429;28;20196;-78
2022/05/01 13:33:12;;;;;;;0.40;0.40;;;19.50;1.00;;;;;;5041241;28;20235;-78
2022/05/01 13:35:37;;;;;;;0.30;0.30;;;19.00;1.00;;;;;;5037889;28;20180;-77